Arcadia, FL (34265)

9:42 AM EDT on August 21, 2014 (GMT -0400)
At the EOC | Change Station
CLOSE
Current Station
Personal Weather Station
Location: Arcadia, FL
Elevation: 50 ft
Nearby Weather Stations

Elev 50 ft 27.21 °N, 81.86 °W | Updated 8 seconds ago

Clear
Clear
83.2 °F
Feels Like 92 °F
N
6.2
Wind Variable Wind from NNE
Gusts 8.6 mph

Today
High -- | Low -- °F
--% Chance of Precip.
Yesterday
High -- | Low -- °F
Precip. -- in
7:01 AM 7:58 PM
Waning Crescent, 14% visible
Pressure 30.14 in
Visibility 10.0 miles
Clouds Clear
Heat Index 92 °F
Dew Point 76 °F
Humidity 79%
Rainfall 0.00 in
Snow Depth Not available.
UV 2 out of 12
Pollen 4.50 out of 12
Air Quality Not available.
Flu Activity Not available.
METAR KPGD 211253Z 05006KT 10SM CLR 28/25 A3014 RMK AO2 SLP206 T02830250

More Conditions Fewer Conditions

Pressure 30.14 in
Visibility 10.0 miles
Clouds Clear
Heat Index 92 °F
Dew Point 76 °F
Humidity 79%
Rainfall 0.00 in
Snow Depth Not available.
UV 2 out of 12
Pollen 4.50 out of 12
Air Quality Not available.
Flu Activity Not available.
METAR KPGD 211253Z 05006KT 10SM CLR 28/25 A3014 RMK AO2 SLP206 T02830250

More Conditions Fewer Conditions

10-Day Weather Forecast

Almanac

Astronomy

Aug. 21, 2014 Rise Set
Actual Time 7:01 AM EDT 7:58 PM EDT
Civil Twilight 6:37 AM EDT 8:22 PM EDT
Nautical Twilight 6:08 AM EDT 8:51 PM EDT
Astronomical Twilight 5:39 AM EDT 9:20 PM EDT
Moon 3:39 AM EDT 5:19 PM EDT
Length of Visible Light 13h 45m
Length of Day
12h 57m
Tomorrow will be 1m 27s shorter.
Waning Crescent, 14% of the Moon is Illuminated
Today
Waning Crescent
Aug 25
New
Sep 2
First Quarter
Sep 8
Full
Sep 15
Last Quarter

Today's Extremes

State Highs State Lows

Community

WunderPhotos

Upload Photos

1,745,918 photos uploaded!

WunderBlogs® & News

Nearby

Snow Depth

Station Depth Elevation
No new snow has been reported.

Earthquake Activity

City Distance Mag. Time & Date
No recent earthquake activity has been reported nearby.
Minimum magnitude displayed is 2.5.

Coastal Water Temperatures

Place Temperature
No Stations Reporting

Nearby Weather Stations